Erie International Tom Ridge Field
KERI : now visible

Airfield :











YOU CAN JOIN US ON...

 
LOGIN :

Register | Disclaimer

   EN    FR    IT 

 









Legend :    VFR   Marginal VFR   IFR   Intensive IFR   Very Intensive IFR
Visi :
Ceiling :
>= 8 km
>= 3000ft
5 to 8 km
1000 to 3000 ft
1500m to 5 km
500 to 1000 ft
800 to 1500m
200 to 500 ft
< 800m
< 200 ft
Symbols :   Thunderstorms  Fog  Heavy snow  Heavy precipitations  Wind > 20 kt






- Airport Elevation : 733 ft
- IATA code : ERI


KERI - Erie International Tom Ridge Field

CURRENT METAR :
  • 230851Z AUTO 00000KT 10SM OVC070 17/16 A2992 RMK AO2 SLP126 T01670156 51017 $

EXPIRED METARs :
  • 230751Z AUTO 00000KT 10SM BKN050 OVC070 17/15 A2991 RMK AO2 SLP124 T01670150 $
  • 230651Z AUTO 07003KT 10SM FEW044 SCT070 17/14 A2989 RMK AO2 SLP119 T01720144 $
  • 230551Z AUTO VRB05KT 10SM CLR 18/16 A2987 RMK AO2 SLP110 60032 T01830156 10278 20183 $
  • 230451Z 21006KT 10SM FEW085 SCT110 19/17 A2985 RMK AO2 RAE33 SLP103 P0001 T01940167 402890167 $

TAF KERI
Valid from the 23 at 06:00 until the 24 at 06:00 UTC


230541Z 2306/2406 25006KT P6SM BKN100
FM230800 20004KT P6SM BKN120
FM231500 27007KT P6SM SKC
FM240200 20003KT P6SM SCT100
KZOB FIR / North America



MET'MAP, your aeronautical weather chart ! - Copyright ORBIFLY December 2007 - Disclaimer

ORBIFLY MET'MAP TEAM :

Programming & Development : Alexandra Zaïnal
Original concept : Baudouin d'Aumeries
Technical & hardware support : Manuel Goepfert
Assistance : Marc-Olivier Méhu




SOURCES & CREDITS :

   NOAA       Earth
Advisory